createdAt,value
2019-05-23T00:01:26.041Z,11.40
2019-05-23T00:04:36.675Z,11.40
2019-05-23T00:07:42.469Z,11.40
2019-05-23T00:10:56.292Z,11.30
2019-05-23T00:14:10.425Z,11.30
2019-05-23T00:17:18.753Z,11.20
2019-05-23T00:20:25.070Z,11.20
2019-05-23T00:23:30.880Z,11.20
2019-05-23T00:26:36.190Z,11.20
2019-05-23T00:29:40.658Z,11.10
2019-05-23T00:32:47.530Z,11.10
2019-05-23T00:35:52.661Z,11.00
2019-05-23T00:38:57.037Z,11.00
2019-05-23T00:42:01.339Z,11.10
2019-05-23T00:45:07.451Z,11.00
2019-05-23T00:48:13.605Z,11.10
2019-05-23T00:51:18.835Z,11.00
2019-05-23T00:54:23.236Z,11.00
2019-05-23T00:57:28.658Z,10.90
2019-05-23T01:00:34.487Z,11.00
2019-05-23T01:03:39.266Z,10.90
2019-05-23T01:06:43.602Z,10.90
2019-05-23T01:09:49.593Z,10.90
2019-05-23T01:12:54.178Z,10.90
2019-05-23T01:15:59.558Z,10.80
2019-05-23T01:19:04.453Z,10.80
2019-05-23T01:22:12.234Z,10.80
2019-05-23T01:25:19.179Z,10.80
2019-05-23T01:28:23.604Z,10.90
2019-05-23T01:31:33.874Z,10.80
2019-05-23T01:34:38.746Z,10.70
2019-05-23T01:37:45.148Z,10.80
2019-05-23T01:40:50.165Z,10.60
2019-05-23T01:43:55.283Z,10.70
2019-05-23T01:47:00.917Z,10.50
2019-05-23T01:50:06.600Z,10.40
2019-05-23T01:53:11.743Z,10.40
2019-05-23T01:56:16.705Z,10.30
2019-05-23T01:59:21.175Z,10.30
2019-05-23T02:02:27.344Z,10.20
2019-05-23T02:05:31.823Z,10.20
2019-05-23T02:08:36.707Z,10.20
2019-05-23T02:11:41.972Z,10.10
2019-05-23T02:14:46.555Z,10.00
2019-05-23T02:17:51.375Z,10.00
2019-05-23T02:20:56.501Z,10.00
2019-05-23T02:24:02.351Z,9.90
2019-05-23T02:27:08.416Z,9.80
2019-05-23T02:30:33.195Z,10.00
2019-05-23T02:33:22.582Z,9.80
2019-05-23T02:36:27.617Z,9.90
2019-05-23T02:39:45.809Z,10.00
2019-05-23T02:42:55.564Z,10.00
2019-05-23T02:46:03.148Z,10.10
2019-05-23T02:49:11.017Z,10.10
2019-05-23T02:52:23.805Z,10.20
2019-05-23T02:55:36.014Z,10.20
2019-05-23T02:59:10.972Z,10.20
2019-05-23T03:03:05.038Z,10.30
2019-05-23T03:06:17.254Z,10.30
2019-05-23T03:09:24.297Z,10.30
2019-05-23T03:12:31.467Z,10.30
2019-05-23T03:15:36.013Z,10.40
2019-05-23T03:18:42.622Z,10.40
2019-05-23T03:21:49.525Z,10.40
2019-05-23T03:24:53.952Z,10.40
2019-05-23T03:27:59.697Z,10.40
2019-05-23T03:31:28.675Z,10.40
2019-05-23T03:34:18.617Z,10.40
2019-05-23T03:37:24.102Z,10.50
2019-05-23T03:40:30.027Z,10.60
2019-05-23T03:43:34.412Z,10.70
2019-05-23T03:46:44.520Z,10.60
2019-05-23T03:49:49.268Z,10.60
2019-05-23T03:52:56.898Z,10.70
2019-05-23T03:56:01.892Z,10.60
2019-05-23T03:59:07.609Z,10.80
2019-05-23T04:02:15.358Z,10.90
2019-05-23T04:05:20.000Z,10.90
2019-05-23T04:08:24.934Z,11.00
2019-05-23T04:11:30.280Z,11.00
2019-05-23T04:14:35.241Z,11.10
2019-05-23T04:17:39.991Z,11.10
2019-05-23T04:20:44.530Z,11.10
2019-05-23T04:23:48.988Z,11.30
2019-05-23T04:26:57.068Z,11.20
2019-05-23T04:30:01.474Z,11.30
2019-05-23T04:33:06.867Z,11.30
2019-05-23T04:36:11.850Z,11.30
2019-05-23T04:39:16.134Z,11.30
2019-05-23T04:42:20.923Z,11.40
2019-05-23T04:45:25.661Z,11.40
2019-05-23T04:48:30.081Z,11.30
2019-05-23T04:51:35.004Z,11.40
2019-05-23T04:54:39.857Z,11.40
2019-05-23T04:57:45.524Z,11.30
2019-05-23T05:00:51.295Z,11.40
2019-05-23T05:03:56.264Z,11.40
2019-05-23T05:07:00.973Z,11.40
2019-05-23T05:10:06.959Z,11.40
2019-05-23T05:13:11.255Z,11.40
2019-05-23T05:16:18.625Z,11.50
2019-05-23T05:19:24.027Z,11.50
2019-05-23T05:22:28.732Z,11.60
2019-05-23T05:25:33.532Z,11.60
2019-05-23T05:28:38.693Z,11.60
2019-05-23T05:31:43.376Z,11.70
2019-05-23T05:34:47.803Z,11.80
2019-05-23T05:37:52.890Z,11.70
2019-05-23T05:40:57.474Z,11.80
2019-05-23T05:44:02.187Z,11.80
2019-05-23T05:47:08.457Z,11.90
2019-05-23T05:50:14.394Z,11.90
2019-05-23T05:53:19.496Z,11.80
2019-05-23T05:56:24.272Z,11.80
2019-05-23T05:59:29.849Z,12.00
2019-05-23T06:02:34.840Z,11.90
2019-05-23T06:05:53.865Z,12.00
2019-05-23T06:09:00.906Z,12.30
2019-05-23T06:12:06.003Z,12.80
2019-05-23T06:15:10.697Z,13.00
2019-05-23T06:18:15.213Z,13.30
2019-05-23T06:21:24.014Z,13.50
2019-05-23T06:24:45.394Z,13.60
2019-05-23T06:27:40.833Z,14.00
2019-05-23T06:30:46.429Z,14.20
2019-05-23T06:33:52.882Z,14.40
2019-05-23T06:36:57.242Z,14.70
2019-05-23T06:40:02.253Z,15.00
2019-05-23T06:43:07.023Z,15.40
2019-05-23T06:46:11.864Z,15.70
2019-05-23T06:49:16.541Z,15.90
2019-05-23T06:52:21.362Z,16.00
2019-05-23T06:55:26.077Z,16.10
2019-05-23T06:58:31.144Z,16.40
2019-05-23T07:01:35.931Z,16.60
2019-05-23T07:04:41.038Z,16.60
2019-05-23T07:07:45.662Z,16.90
2019-05-23T07:10:50.039Z,16.90
2019-05-23T07:13:54.398Z,16.80
2019-05-23T07:16:59.026Z,16.70
2019-05-23T07:20:03.850Z,16.60
2019-05-23T07:23:11.799Z,16.30
2019-05-23T07:26:16.693Z,16.40
2019-05-23T07:29:21.224Z,16.70
2019-05-23T07:32:25.605Z,17.20
2019-05-23T07:35:30.098Z,17.90
2019-05-23T07:38:34.406Z,18.50
2019-05-23T07:41:38.821Z,18.90
2019-05-23T07:44:48.286Z,19.20
2019-05-23T07:47:51.318Z,19.20
2019-05-23T07:50:55.943Z,19.30
2019-05-23T07:54:18.161Z,19.40
2019-05-23T07:57:24.228Z,19.70
2019-05-23T08:00:32.077Z,20.20
2019-05-23T08:03:39.777Z,20.40
2019-05-23T08:06:48.616Z,20.80
2019-05-23T08:09:50.797Z,21.10
2019-05-23T08:12:55.759Z,21.20
2019-05-23T08:16:00.257Z,21.40
2019-05-23T08:19:05.196Z,21.60
2019-05-23T08:22:09.937Z,21.70
2019-05-23T08:25:14.923Z,21.60
2019-05-23T08:28:19.610Z,21.40
2019-05-23T08:31:24.146Z,21.00
2019-05-23T08:34:40.808Z,21.00
2019-05-23T08:37:37.018Z,21.00
2019-05-23T08:40:42.051Z,21.30
2019-05-23T08:43:46.918Z,21.60
2019-05-23T08:46:51.267Z,22.00
2019-05-23T08:49:56.324Z,22.10
2019-05-23T08:53:00.983Z,22.10
2019-05-23T08:56:17.956Z,22.00
2019-05-23T08:59:12.409Z,22.20
2019-05-23T09:02:16.902Z,22.30
2019-05-23T09:05:24.431Z,22.40
2019-05-23T09:08:29.504Z,22.30
2019-05-23T09:11:34.673Z,22.30
2019-05-23T09:14:39.975Z,21.90
2019-05-23T09:17:53.081Z,21.70
2019-05-23T09:20:52.040Z,21.80
2019-05-23T09:23:56.334Z,22.00
2019-05-23T09:27:19.733Z,22.20
2019-05-23T09:30:26.664Z,22.20
2019-05-23T09:33:31.967Z,22.00
2019-05-23T09:36:36.734Z,22.00
2019-05-23T09:39:43.209Z,22.10
2019-05-23T09:42:47.446Z,22.20
2019-05-23T09:45:51.771Z,22.30
2019-05-23T09:48:56.554Z,22.50
2019-05-23T09:52:01.753Z,22.50
2019-05-23T09:55:07.063Z,22.60
2019-05-23T09:58:12.554Z,22.70
2019-05-23T10:01:17.882Z,22.70
2019-05-23T10:04:22.689Z,22.80
2019-05-23T10:07:27.061Z,22.60
2019-05-23T10:10:32.934Z,22.70
2019-05-23T10:13:39.590Z,22.80
2019-05-23T10:16:44.359Z,22.90
2019-05-23T10:19:49.037Z,22.90
2019-05-23T10:22:53.774Z,22.90
2019-05-23T10:25:58.496Z,23.00
2019-05-23T10:29:03.276Z,23.10
2019-05-23T10:32:09.832Z,23.30
2019-05-23T10:35:15.537Z,23.40
2019-05-23T10:38:19.817Z,23.50
2019-05-23T10:41:24.483Z,23.40
2019-05-23T10:44:29.161Z,23.40
2019-05-23T10:47:33.649Z,23.40
2019-05-23T10:50:44.665Z,23.20
2019-05-23T10:53:44.451Z,23.20
2019-05-23T10:56:48.747Z,23.30
2019-05-23T10:59:53.107Z,23.40
2019-05-23T11:02:57.881Z,23.30
2019-05-23T11:06:21.265Z,23.00
2019-05-23T11:09:37.412Z,22.90
2019-05-23T11:12:32.589Z,22.80
2019-05-23T11:15:37.884Z,22.90
2019-05-23T11:18:42.283Z,23.10
2019-05-23T11:21:47.751Z,23.10
2019-05-23T11:24:52.578Z,23.30
2019-05-23T11:27:58.911Z,23.40
2019-05-23T11:31:04.915Z,23.40
2019-05-23T11:34:10.026Z,23.60
2019-05-23T11:37:14.506Z,23.70
2019-05-23T11:40:18.833Z,23.60
2019-05-23T11:43:23.166Z,23.70
2019-05-23T11:46:32.770Z,23.70
2019-05-23T11:49:39.757Z,23.80
2019-05-23T11:52:44.783Z,23.80
2019-05-23T11:55:53.968Z,24.00
2019-05-23T11:58:55.711Z,24.00
2019-05-23T12:02:31.240Z,24.40
2019-05-23T12:05:36.905Z,24.60
2019-05-23T12:08:44.660Z,24.70
2019-05-23T12:11:49.128Z,24.80
2019-05-23T12:14:53.626Z,24.90
2019-05-23T12:17:58.715Z,24.90
2019-05-23T12:21:03.465Z,24.90
2019-05-23T12:24:08.182Z,25.00
2019-05-23T12:27:14.422Z,25.20
2019-05-23T12:30:24.992Z,25.40
2019-05-23T12:33:29.572Z,25.40
2019-05-23T12:36:33.858Z,25.40
2019-05-23T12:39:38.772Z,25.40
2019-05-23T12:42:43.342Z,25.30
2019-05-23T12:45:48.420Z,25.40
2019-05-23T12:49:17.811Z,25.50
2019-05-23T12:52:24.064Z,25.70
2019-05-23T12:55:28.508Z,25.70
2019-05-23T12:58:35.104Z,25.70
2019-05-23T13:01:42.494Z,25.70
2019-05-23T13:04:47.219Z,25.90
2019-05-23T13:07:51.612Z,25.90
2019-05-23T13:10:55.998Z,25.90
2019-05-23T13:14:00.377Z,25.90
2019-05-23T13:17:05.849Z,26.00
2019-05-23T13:20:11.186Z,26.20
2019-05-23T13:23:20.804Z,26.30
2019-05-23T13:26:28.389Z,26.30
2019-05-23T13:29:33.527Z,26.30
2019-05-23T13:32:39.126Z,26.30
2019-05-23T13:35:43.643Z,26.30
2019-05-23T13:38:48.146Z,26.30
2019-05-23T13:41:52.899Z,26.30
2019-05-23T13:44:58.164Z,26.20
2019-05-23T13:48:02.495Z,26.10
2019-05-23T13:51:07.388Z,26.00
2019-05-23T13:54:12.330Z,26.00
2019-05-23T13:57:17.098Z,25.90
2019-05-23T14:00:22.785Z,25.80
2019-05-23T14:03:27.505Z,25.60
2019-05-23T14:06:32.645Z,25.50
2019-05-23T14:09:37.304Z,25.40
2019-05-23T14:12:41.824Z,25.10
2019-05-23T14:15:49.302Z,24.90
2019-05-23T14:18:53.676Z,24.60
2019-05-23T14:21:58.464Z,24.30
2019-05-23T14:25:21.945Z,24.00
2019-05-23T14:28:28.580Z,23.60
2019-05-23T14:31:38.722Z,23.30
2019-05-23T14:34:43.183Z,23.00
2019-05-23T14:37:50.160Z,22.80
2019-05-23T14:40:56.053Z,22.70
2019-05-23T14:44:00.628Z,22.60
2019-05-23T14:47:34.842Z,22.50
2019-05-23T14:50:57.353Z,22.40
2019-05-23T14:54:08.402Z,22.40
2019-05-23T14:57:13.005Z,22.40
2019-05-23T15:00:17.583Z,22.30
2019-05-23T15:03:23.271Z,22.20
2019-05-23T15:06:28.151Z,22.30
2019-05-23T15:09:32.680Z,22.20
2019-05-23T15:12:36.980Z,22.30
2019-05-23T15:15:41.405Z,22.30
2019-05-23T15:18:46.099Z,22.10
2019-05-23T15:21:50.425Z,22.20
2019-05-23T15:24:54.850Z,22.00
2019-05-23T15:27:59.935Z,22.10
2019-05-23T15:31:04.501Z,22.10
2019-05-23T15:34:08.810Z,22.00
2019-05-23T15:37:13.206Z,21.60
2019-05-23T15:40:17.729Z,21.30
2019-05-23T15:43:22.551Z,21.10
2019-05-23T15:46:26.971Z,20.80
2019-05-23T15:49:33.081Z,20.60
2019-05-23T15:52:43.672Z,20.50
2019-05-23T15:55:54.055Z,20.40
2019-05-23T15:59:16.051Z,20.40
2019-05-23T16:02:24.667Z,20.40
2019-05-23T16:05:29.262Z,20.40
2019-05-23T16:08:34.546Z,20.30
2019-05-23T16:11:38.953Z,20.00
2019-05-23T16:14:43.734Z,20.00
2019-05-23T16:17:48.422Z,19.90
2019-05-23T16:20:52.784Z,19.90
2019-05-23T16:23:57.102Z,19.90
2019-05-23T16:27:01.449Z,19.80
2019-05-23T16:30:06.435Z,19.80
2019-05-23T16:33:10.801Z,19.80
2019-05-23T16:36:15.512Z,19.80
2019-05-23T16:39:20.127Z,19.70
2019-05-23T16:42:24.440Z,19.70
2019-05-23T16:45:28.808Z,19.60
2019-05-23T16:48:33.467Z,19.60
2019-05-23T16:51:37.958Z,19.40
2019-05-23T16:54:45.174Z,19.40
2019-05-23T16:57:53.707Z,19.30
2019-05-23T17:01:23.535Z,19.20
2019-05-23T17:04:38.731Z,19.10
2019-05-23T17:08:06.129Z,19.00
2019-05-23T17:11:29.718Z,18.80
2019-05-23T17:14:44.320Z,18.60
2019-05-23T17:18:10.874Z,18.60
2019-05-23T17:21:52.649Z,18.40
2019-05-23T17:25:19.059Z,18.40
2019-05-23T17:28:35.062Z,18.20
2019-05-23T17:31:39.796Z,18.20
2019-05-23T17:34:44.248Z,18.00
2019-05-23T17:37:48.592Z,18.00
2019-05-23T17:40:53.186Z,17.90
2019-05-23T17:43:57.624Z,17.90
2019-05-23T17:47:01.997Z,17.80
2019-05-23T17:50:06.559Z,17.60
2019-05-23T17:53:10.875Z,17.60
2019-05-23T17:56:17.524Z,17.50
2019-05-23T17:59:21.892Z,17.50
2019-05-23T18:02:26.240Z,17.50
2019-05-23T18:05:31.329Z,17.50
2019-05-23T18:08:37.636Z,17.30
2019-05-23T18:11:42.221Z,17.20
2019-05-23T18:14:47.060Z,17.10
2019-05-23T18:17:51.409Z,17.10
2019-05-23T18:20:55.943Z,17.00
2019-05-23T18:24:00.855Z,16.90
2019-05-23T18:27:06.270Z,16.90
2019-05-23T18:30:17.778Z,16.70
2019-05-23T18:33:23.648Z,16.60
2019-05-23T18:36:28.550Z,16.50
2019-05-23T18:39:33.164Z,16.30
2019-05-23T18:42:39.297Z,16.20
2019-05-23T18:45:44.690Z,16.00
2019-05-23T18:48:49.349Z,15.80
2019-05-23T18:51:53.844Z,15.80
2019-05-23T18:54:58.947Z,15.60
2019-05-23T18:58:04.306Z,15.40
2019-05-23T19:01:17.782Z,15.40
2019-05-23T19:04:22.521Z,15.10
2019-05-23T19:07:28.786Z,15.00
2019-05-23T19:10:33.179Z,14.90
2019-05-23T19:13:37.979Z,14.80
2019-05-23T19:16:42.701Z,14.70
2019-05-23T19:19:47.450Z,14.50
2019-05-23T19:22:52.668Z,14.50
2019-05-23T19:25:59.979Z,14.30
2019-05-23T19:29:04.521Z,14.10
2019-05-23T19:32:09.700Z,14.10
2019-05-23T19:35:15.152Z,14.00
2019-05-23T19:38:19.838Z,13.80
2019-05-23T19:41:36.871Z,13.70
2019-05-23T19:44:30.672Z,13.60
2019-05-23T19:47:35.021Z,13.50
2019-05-23T19:50:39.705Z,13.50
2019-05-23T19:53:44.163Z,13.30
2019-05-23T19:56:48.488Z,13.40
2019-05-23T19:59:52.909Z,13.30
2019-05-23T20:03:03.227Z,13.20
2019-05-23T20:06:06.206Z,13.10
2019-05-23T20:09:13.288Z,13.20
2019-05-23T20:12:17.630Z,13.00
2019-05-23T20:15:22.396Z,13.00
2019-05-23T20:18:26.883Z,12.90
2019-05-23T20:21:31.651Z,12.80
2019-05-23T20:24:36.011Z,12.90
2019-05-23T20:27:40.397Z,12.80
2019-05-23T20:31:00.747Z,12.80
2019-05-23T20:34:07.098Z,12.80
2019-05-23T20:37:11.557Z,12.80
2019-05-23T20:40:17.048Z,12.70
2019-05-23T20:43:21.417Z,12.60
2019-05-23T20:46:26.033Z,12.50
2019-05-23T20:49:30.440Z,12.50
2019-05-23T20:52:34.814Z,12.40
2019-05-23T20:55:39.252Z,12.40
2019-05-23T20:58:43.593Z,12.40
2019-05-23T21:01:48.096Z,12.30
2019-05-23T21:04:52.472Z,12.20
2019-05-23T21:07:56.789Z,12.30
2019-05-23T21:11:01.073Z,12.20
2019-05-23T21:14:05.656Z,12.00
2019-05-23T21:17:09.939Z,12.00
2019-05-23T21:20:14.404Z,11.90
2019-05-23T21:23:18.719Z,11.90
2019-05-23T21:26:23.095Z,12.00
2019-05-23T21:29:27.452Z,12.00
2019-05-23T21:32:31.842Z,12.00
2019-05-23T21:35:36.151Z,12.00
2019-05-23T21:38:40.456Z,12.00
2019-05-23T21:41:44.765Z,12.00
2019-05-23T21:44:49.156Z,11.90
2019-05-23T21:47:53.439Z,11.80
2019-05-23T21:50:57.717Z,11.80
2019-05-23T21:54:01.992Z,11.70
2019-05-23T21:57:06.723Z,11.60
2019-05-23T22:00:13.390Z,11.60
2019-05-23T22:03:17.761Z,11.50
2019-05-23T22:06:25.390Z,11.60
2019-05-23T22:09:29.858Z,11.60
2019-05-23T22:12:34.185Z,11.40
2019-05-23T22:15:38.663Z,11.50
2019-05-23T22:18:42.976Z,11.40
2019-05-23T22:21:47.444Z,11.40
2019-05-23T22:24:51.785Z,11.40
2019-05-23T22:27:56.078Z,11.40
2019-05-23T22:31:00.791Z,11.30
2019-05-23T22:34:13.981Z,11.30
2019-05-23T22:37:25.815Z,11.10
2019-05-23T22:40:30.167Z,11.10
2019-05-23T22:43:34.526Z,11.00
2019-05-23T22:46:39.004Z,11.00
2019-05-23T22:49:43.402Z,10.90
2019-05-23T22:52:47.776Z,10.90
2019-05-23T22:55:52.074Z,10.90
2019-05-23T22:58:56.482Z,10.80
2019-05-23T23:02:01.085Z,10.90
2019-05-23T23:05:08.192Z,10.90
2019-05-23T23:08:12.614Z,11.00
2019-05-23T23:11:16.979Z,11.00
2019-05-23T23:14:21.705Z,11.00
2019-05-23T23:17:26.084Z,11.00
2019-05-23T23:20:30.682Z,11.00
2019-05-23T23:23:35.042Z,10.90
2019-05-23T23:26:39.346Z,10.80
2019-05-23T23:29:43.767Z,10.90
2019-05-23T23:32:48.120Z,10.90
2019-05-23T23:35:52.507Z,10.70
2019-05-23T23:38:56.963Z,10.80
2019-05-23T23:42:01.348Z,10.70
2019-05-23T23:45:23.576Z,10.60
2019-05-23T23:48:48.608Z,10.60
2019-05-23T23:52:10.714Z,10.60
2019-05-23T23:55:32.742Z,10.40
2019-05-23T23:58:36.228Z,10.40
